EDMA

Augsburg Airport

Augsburg, Germany
TAF EDMA 181700Z 1818/1903 03007KT CAVOK BECMG 1821/1823 BKN013 TEMPO 1821/1903 4500 -DZ BKN007
Issued Valid From Valid To
Nov-18 @ 17:00 UTC
(8 hours ago)
Nov-18 @ 18:00 UTC
(7 hours ago)
Nov-19 @ 03:00 UTC
(in 2 hours)
Expired Click to View Nov-18 @ 18:00 to Nov-18 @ 21:00
TAF EDMA 181700Z 1818/1903 03007KT CAVOK
Wind Visibility Clouds Conditions
30° at 7 knots 10,000+ meters
  • No significant clouds
Temporary Nov-18 @ 21:00 to Nov-19 @ 03:00
TEMPO 1821/1903 4500 -DZ BKN007
Visibility Clouds Conditions
4,506 meters
  • Broken at 700' AGL
  • Light Drizzle
Becoming Nov-18 @ 21:00 to Nov-19 @ 03:00
BECMG 1821/1823 BKN013
Wind Visibility Clouds Conditions
30° at 7 knots 10,000+ meters
  • Broken at 1,300' AGL
TAF EDMA 181700Z 1818/1903 03007KT CAVOK BECMG 1821/1823 BKN013 TEMPO 1821/1903 4500 -DZ BKN007
Issued Nov-18 @ 17:00 UTC
(8 hours ago)
Valid From Nov-18 @ 18:00 UTC
(7 hours ago)
Valid To Nov-19 @ 03:00 UTC
(in 2 hours)
Nov-18 @ 18:00 - Nov-18 @ 21:00
Wind Visibility
30° at 7 knots 10,000+ meters
Clouds
  • No significant clouds
Conditions
Temporary Nov-18 @ 21:00 - Nov-19 @ 03:00
Clouds
  • Broken at 700' AGL
Conditions
  • Light Drizzle
Becoming Nov-18 @ 21:00 - Nov-19 @ 03:00
Wind Visibility
30° at 7 knots 10,000+ meters
Clouds
  • Broken at 1,300' AGL
Conditions